الصفحة الرئيسية
METAR-TAF:

METAR-TAF

مطار :

مطار بوانت نوار

Pointe-Noire, كونغو

دائرة عرض: 04-49S, خط طول: 011-54E, ارتفاع: 17 متر

مراقبة الطقس الحالي

تاريخ ووقت الإصدار 37 دقيقة قبل الساعة 04:00UTC
ريح 3 عقدة من الشرق
درجة الحرارة 25°درجة مئوية
الرطوبة 94%
ضغط 1013 hPa
الرؤية: 7000 متر
غيوم قليلة على ارتفاع 800 قدم
غيوم متفرقة على ارتفاع 2000 قدم
غيوم قليلة على ارتفاع 3000 قدم, مزنة ركامية.

METAR: FCPP 100400Z 09003KT 7000 FEW008 SCT020 FEW030CB 25/24 Q1013 NOSIG

زمن: 05:37 (04:37 UTC)

توقعات

تاريخ ووقت الإصدار 5ساعات و 37 دقيقة قبل الساعة 23:00UTC
التوقعات صالحة من10 الساعة 00 UTC إلى 10 الساعة 24 UTC
ريح 4 عقدة من الجنوب
الرؤية: 8000 متر
غيوم متفرقة على ارتفاع 2300 قدم
غيوم قليلة على ارتفاع 3000 قدم, مزنة ركامية.
نظرية الاحتمالات 30%
من 10 الساعة 01 UTC إلى 10 الساعة 03 UTC
عاصفة رعدية, مطر خفيف
أصبح
من 10 الساعة 04 UTC إلى 10 الساعة 06 UTC
غيوم مفككة على ارتفاع 1500 قدم

TAF: FCPP 092300Z 1000/1024 19004KT 8000 SCT023 FEW030CB PROB30 1001/1003 -TSRA BECMG 1004/1006 BKN015

أرصاد الطقس والتوقعات من أكثر من 4000 مطار (تقارير الطقس للمطار METAR والتنبؤ بالطقس بالمطارTAF).

المحطات المتاحة هي النقط الصفراء والحمراء على الخريطة.

حرك المؤشر فوق النقطة لمعرفة اسم المحطة.

ثم انقر لمعرفة أرصاد وتوقعات الطقس.

لتغيير الخارطة: اضغط على الأزرار الخضراء مع رمز الصليب الأسود للتكبير. على الزر الأخضر مع شرطة للتصغير، أو على الأسهم الخضراء للخرائط المجاورة.


METAR-TAF: